Time;durP1;ratioP1;P1;durP2;ratioP2;P2;SDS_P1;SDS_P2;PMS_P1;PMS_P2;Temp;Humidity;BMP_temperature;BMP_pressure;BME280_temperature;BME280_humidity;BME280_pressure;Samples;Min_cycle;Max_cycle;Signal;HPM_P1;HPM_P2
2022/06/16 00:01:29;;;;;;;5.65;3.20;;;;;;;17.92;49.95;101787.22;5057756;28;20036;-76
2022/06/16 00:03:54;;;;;;;6.38;2.80;;;;;;;17.89;50.30;101788.19;5056428;28;20032;-76
2022/06/16 00:06:19;;;;;;;6.82;2.75;;;;;;;17.86;50.16;101788.31;5060556;28;20033;-76
2022/06/16 00:08:45;;;;;;;6.95;3.03;;;;;;;17.85;50.35;101780.50;5057586;28;20020;-75
2022/06/16 00:11:16;;;;;;;5.97;2.78;;;;;;;17.80;50.43;101770.16;5057839;28;20094;-76
2022/06/16 00:13:42;;;;;;;6.05;3.00;;;;;;;17.75;50.36;101764.22;5051928;28;20037;-75
2022/06/16 00:16:08;;;;;;;4.25;2.80;;;;;;;17.71;50.27;101766.13;5059218;28;20028;-76
2022/06/16 00:18:34;;;;;;;6.63;3.20;;;;;;;17.68;50.45;101775.91;5056828;28;20021;-76
2022/06/16 00:20:59;;;;;;;7.18;3.00;;;;;;;17.65;50.66;101776.91;5058086;28;20044;-76
2022/06/16 00:23:24;;;;;;;5.68;3.00;;;;;;;17.64;50.67;101783.06;5057740;28;20051;-76
2022/06/16 00:25:50;;;;;;;5.35;3.38;;;;;;;17.62;50.59;101779.66;5042620;28;20029;-76
2022/06/16 00:28:15;;;;;;;6.28;3.40;;;;;;;17.59;50.40;101774.53;5055703;28;20185;-76
2022/06/16 00:30:41;;;;;;;4.82;3.40;;;;;;;17.57;51.50;101777.22;5059031;28;20395;-76
2022/06/16 00:33:06;;;;;;;3.80;2.97;;;;;;;17.55;50.91;101786.09;5057479;28;20051;-76
2022/06/16 00:35:32;;;;;;;6.65;3.30;;;;;;;17.52;50.73;101783.59;5059374;28;21265;-76
2022/06/16 00:37:57;;;;;;;5.28;3.10;;;;;;;17.50;51.04;101788.91;5055099;28;20036;-76
2022/06/16 00:40:23;;;;;;;3.88;3.10;;;;;;;17.47;50.76;101786.41;5057361;28;20056;-76
2022/06/16 00:42:48;;;;;;;6.80;3.20;;;;;;;17.43;51.15;101785.66;5060872;28;20106;-76
2022/06/16 00:45:55;;;;;;;6.72;3.35;;;;;;;17.42;50.13;101788.34;5056832;28;20043;-76
2022/06/16 00:48:36;;;;;;;5.30;2.90;;;;;;;17.39;50.71;101788.47;5054702;28;20032;-76
2022/06/16 00:51:28;;;;;;;5.47;3.17;;;;;;;17.33;51.11;101794.81;5056266;28;20497;-76
2022/06/16 00:53:59;;;;;;;5.38;3.30;;;;;;;17.30;50.83;101794.94;5057836;28;20430;-76
2022/06/16 00:56:24;;;;;;;5.80;3.10;;;;;;;17.25;51.34;101792.50;5056562;28;20078;-76
2022/06/16 00:58:56;;;;;;;4.50;2.58;;;;;;;17.22;51.66;101797.03;5057457;28;20104;-76
2022/06/16 01:01:21;;;;;;;;;;;;;;;17.26;49.91;101802.09;5051328;28;20024;-76
2022/06/16 01:06:32;;;;;;;4.82;3.05;;;;;;;17.10;51.45;101799.19;5059020;28;20094;-76
2022/06/16 01:09:05;;;;;;;4.72;2.95;;;;;;;17.08;51.36;101805.44;5058808;28;20024;-76
2022/06/16 01:14:45;;;;;;;5.38;3.10;;;;;;;16.96;51.65;101793.59;5056122;28;20034;-76
2022/06/16 01:17:23;;;;;;;6.10;3.33;;;;;;;16.91;51.85;101801.63;5054264;28;20025;-76
2022/06/16 01:19:56;;;;;;;4.55;3.10;;;;;;;16.89;51.76;101800.00;5057673;28;20418;-76
2022/06/16 01:22:56;;;;;;;5.57;3.30;;;;;;;16.87;51.47;101807.06;5057482;28;20116;-75
2022/06/16 01:26:17;;;;;;;5.72;3.08;;;;;;;16.82;51.21;101807.25;5057076;28;20467;-75
2022/06/16 01:29:06;;;;;;;5.88;3.17;;;;;;;16.76;51.65;101815.34;5018031;28;20045;-76
2022/06/16 01:31:52;;;;;;;3.95;2.88;;;;;;;16.70;52.11;101819.06;5056623;28;20154;-76
2022/06/16 01:34:28;;;;;;;7.55;3.42;;;;;;;16.65;52.70;101828.84;5056512;28;20960;-76
2022/06/16 01:37:02;;;;;;;5.88;3.20;;;;;;;16.60;53.42;101836.91;5060252;28;20091;-76
2022/06/16 01:39:36;;;;;;;5.13;3.47;;;;;;;16.54;52.93;101832.72;5060386;28;20031;-76
2022/06/16 01:42:19;;;;;;;7.88;3.53;;;;;;;16.51;52.80;101831.97;5043079;28;20036;-76
2022/06/16 01:44:55;;;;;;;5.13;3.13;;;;;;;16.46;53.22;101828.66;5064111;28;20028;-76
2022/06/16 01:47:22;;;;;;;5.40;3.50;;;;;;;16.41;53.87;101836.66;5066044;28;20043;-76
2022/06/16 01:49:56;;;;;;;5.93;3.80;;;;;;;16.35;53.34;101826.41;5057381;28;20498;-76
2022/06/16 01:52:31;;;;;;;5.32;3.60;;;;;;;16.29;53.49;101831.84;5063001;28;20048;-75
2022/06/16 01:55:02;;;;;;;5.32;3.75;;;;;;;16.26;53.82;101834.56;5058605;28;20039;-76
2022/06/16 01:57:35;;;;;;;7.47;3.70;;;;;;;16.21;54.06;101830.34;5061526;28;20033;-76
2022/06/16 02:00:04;;;;;;;5.50;3.70;;;;;;;16.17;54.16;101826.09;5058916;28;20479;-75
2022/06/16 02:02:33;;;;;;;4.97;3.40;;;;;;;16.12;54.23;101821.94;5042899;28;20548;-76
2022/06/16 02:05:15;;;;;;;5.82;3.40;;;;;;;16.06;53.78;101828.22;5060006;28;20037;-75
2022/06/16 02:07:59;;;;;;;5.00;3.67;;;;;;;15.99;53.79;101827.56;5058927;28;20032;-75
2022/06/16 02:10:29;;;;;;;7.05;4.05;;;;;;;15.89;54.84;101818.28;5057255;28;20039;-75
2022/06/16 02:12:58;;;;;;;6.55;3.95;;;;;;;15.81;55.17;101826.38;5061880;28;20033;-75
2022/06/16 02:15:48;;;;;;;7.43;3.58;;;;;;;15.76;55.29;101834.41;5051845;28;20178;-75
2022/06/16 02:18:20;;;;;;;5.93;3.63;;;;;;;15.71;55.95;101824.97;5056067;28;20032;-76
2022/06/16 02:20:58;;;;;;;7.57;3.45;;;;;;;15.70;56.21;101825.88;5061040;28;20040;-76
2022/06/16 02:23:24;;;;;;;8.05;3.70;;;;;;;15.61;57.01;101820.00;5057654;28;20043;-76
2022/06/16 02:25:53;;;;;;;6.78;3.75;;;;;;;15.55;56.62;101824.56;5057971;28;20028;-76
2022/06/16 02:28:19;;;;;;;8.45;3.70;;;;;;;15.47;57.43;101827.44;5057147;28;20055;-76
2022/06/16 02:31:19;;;;;;;5.47;3.85;;;;;;;15.43;55.66;101821.44;5061704;28;21778;-76
2022/06/16 02:34:15;;;;;;;6.20;3.92;;;;;;;15.41;55.51;101822.34;5059539;28;20435;-75
2022/06/16 02:37:08;;;;;;;5.90;3.88;;;;;;;15.33;57.14;101836.56;5055357;28;20040;-75
2022/06/16 02:40:01;;;;;;;5.40;3.50;;;;;;;15.27;56.03;101852.47;5055909;28;20024;-76
2022/06/16 02:42:37;;;;;;;7.63;4.22;;;;;;;15.17;56.52;101866.78;5057348;28;20121;-76
2022/06/16 02:45:38;;;;;;;5.60;4.20;;;;;;;15.12;56.17;101874.72;5059076;28;20027;-75
2022/06/16 02:48:12;;;;;;;5.25;3.72;;;;;;;15.04;57.34;101874.09;5053844;28;20044;-75
2022/06/16 02:50:45;;;;;;;6.25;4.03;;;;;;;14.98;57.73;101875.16;5055735;28;20040;-75
2022/06/16 02:53:57;;;;;;;7.53;4.13;;;;;;;14.93;57.20;101874.41;5056216;28;20036;-76
2022/06/16 02:56:25;;;;;;;5.78;4.22;;;;;;;14.88;58.17;101873.66;5059456;28;20063;-76
2022/06/16 02:58:54;;;;;;;5.18;4.03;;;;;;;14.84;58.90;101879.91;5060474;28;20036;-75
2022/06/16 03:01:20;;;;;;;6.03;4.03;;;;;;;14.80;58.54;101879.09;5040623;28;20384;-75
2022/06/16 03:04:07;;;;;;;7.45;4.00;;;;;;;14.79;57.16;101881.78;5058593;28;20476;-75
2022/06/16 03:06:33;;;;;;;6.10;4.13;;;;;;;14.76;58.57;101887.09;5055480;28;20041;-75
2022/06/16 03:08:59;;;;;;;7.47;4.07;;;;;;;14.69;58.50;101887.25;5055773;28;20051;-75
2022/06/16 03:11:25;;;;;;;7.65;4.50;;;;;;;14.67;59.26;101890.78;5056879;28;20124;-75
2022/06/16 03:13:50;;;;;;;7.22;4.20;;;;;;;14.61;58.58;101886.56;5060018;28;20096;-76
2022/06/16 03:16:15;;;;;;;5.72;4.10;;;;;;;14.59;59.33;101880.50;5056620;28;20059;-75
2022/06/16 03:18:41;;;;;;;9.15;4.43;;;;;;;14.59;59.35;101883.13;5057296;28;20178;-75
2022/06/16 03:21:07;;;;;;;6.32;4.63;;;;;;;14.52;59.56;101889.41;5055476;28;20059;-75
2022/06/16 03:23:32;;;;;;;7.88;4.10;;;;;;;14.41;59.99;101887.09;5050675;28;20139;-75
2022/06/16 03:25:58;;;;;;;17.13;5.72;;;;;;;14.38;60.29;101887.16;5058669;28;21935;-75
2022/06/16 03:28:25;;;;;;;19.60;5.13;;;;;;;14.33;60.74;101892.50;5058872;28;20021;-75
2022/06/16 03:30:50;;;;;;;21.77;5.38;;;;;;;14.30;60.95;101889.09;5054159;28;20040;-75
2022/06/16 03:33:15;;;;;;;10.10;4.43;;;;;;;14.27;60.41;101883.03;5058921;28;20037;-75
2022/06/16 03:35:42;;;;;;;8.88;4.40;;;;;;;14.26;60.54;101883.09;5053352;28;20020;-75
2022/06/16 03:38:12;;;;;;;7.70;4.30;;;;;;;14.25;60.59;101881.38;5052406;28;20115;-76
2022/06/16 03:40:38;;;;;;;5.15;4.30;;;;;;;14.24;60.33;101883.13;5033413;28;20246;-75
2022/06/16 03:43:05;;;;;;;7.82;4.03;;;;;;;14.24;60.78;101887.50;5041077;28;20147;-75
2022/06/16 03:45:31;;;;;;;6.05;4.15;;;;;;;14.21;61.32;101890.19;5056668;28;20032;-75
2022/06/16 03:47:56;;;;;;;6.35;4.60;;;;;;;14.19;60.95;101902.44;5034302;28;20528;-75
2022/06/16 03:50:22;;;;;;;7.80;3.97;;;;;;;14.15;60.51;101909.50;5055294;28;20033;-76
2022/06/16 03:52:47;;;;;;;6.22;4.15;;;;;;;14.10;61.19;101908.75;5055495;28;20488;-75
2022/06/16 03:55:12;;;;;;;6.68;4.28;;;;;;;14.04;61.14;101915.00;5052060;28;20041;-75
2022/06/16 03:57:38;;;;;;;6.13;4.15;;;;;;;14.04;62.05;101925.44;5050135;28;20040;-75
2022/06/16 04:00:06;;;;;;;6.57;3.90;;;;;;;14.03;61.54;101918.50;5053669;28;20024;-75
2022/06/16 04:02:31;;;;;;;8.48;4.35;;;;;;;14.07;60.99;101927.16;5054195;28;20163;-75
2022/06/16 04:04:57;;;;;;;7.28;4.10;;;;;;;14.11;60.95;101931.41;5059694;28;20111;-75
2022/06/16 04:07:22;;;;;;;7.55;4.13;;;;;;;14.12;60.96;101920.03;5058938;28;20035;-75
2022/06/16 04:09:47;;;;;;;8.73;4.05;;;;;;;14.16;60.98;101928.69;5041841;28;20032;-75
2022/06/16 04:12:12;;;;;;;5.22;4.10;;;;;;;14.19;60.53;101936.47;5064597;28;20409;-76
2022/06/16 04:14:38;;;;;;;5.25;4.07;;;;;;;14.20;60.82;101939.06;5060203;28;20063;-75
2022/06/16 04:17:03;;;;;;;6.68;3.92;;;;;;;14.22;60.60;101933.78;5040915;28;20075;-76
2022/06/16 04:19:29;;;;;;;11.20;4.05;;;;;;;14.24;60.77;101931.97;5059067;28;20049;-75
2022/06/16 04:21:54;;;;;;;6.50;3.88;;;;;;;14.25;60.87;101944.19;5066927;28;20048;-76
2022/06/16 04:24:22;;;;;;;10.63;4.45;;;;;;;14.23;61.10;101948.59;5064437;28;20505;-76
2022/06/16 04:26:51;;;;;;;8.82;3.85;;;;;;;14.25;61.09;101947.66;5063449;28;20048;-75
2022/06/16 04:29:17;;;;;;;7.50;4.18;;;;;;;14.27;60.94;101938.00;5066627;28;20086;-76
2022/06/16 04:31:43;;;;;;;7.32;4.18;;;;;;;14.29;60.97;101945.84;5066692;28;20108;-75
2022/06/16 04:34:09;;;;;;;6.95;3.78;;;;;;;14.30;61.12;101942.31;5063322;28;20100;-75
2022/06/16 04:36:34;;;;;;;6.03;4.07;;;;;;;14.31;60.95;101944.03;5059190;28;20024;-75
2022/06/16 04:39:00;;;;;;;7.50;4.32;;;;;;;14.34;60.83;101949.22;5061705;28;20094;-75
2022/06/16 04:41:26;;;;;;;5.40;4.15;;;;;;;14.34;60.95;101948.34;5058605;28;20033;-75
2022/06/16 04:43:51;;;;;;;8.15;4.50;;;;;;;14.36;60.77;101950.00;5060015;28;20117;-75
2022/06/16 04:46:19;;;;;;;6.97;4.95;;;;;;;14.40;60.89;101956.06;5041757;28;20463;-75
2022/06/16 04:48:45;;;;;;;7.88;4.07;;;;;;;14.44;60.34;101956.84;5056120;28;20384;-75
2022/06/16 04:51:12;;;;;;;7.68;4.43;;;;;;;14.47;60.73;101964.63;5057094;28;20040;-76
2022/06/16 04:53:37;;;;;;;5.85;4.10;;;;;;;14.50;62.33;101975.03;5058912;28;20072;-75
2022/06/16 04:56:03;;;;;;;6.95;4.32;;;;;;;14.55;61.57;101971.41;5059712;28;20067;-75
2022/06/16 04:58:29;;;;;;;6.95;3.70;;;;;;;14.63;62.95;101971.19;5056103;28;20041;-75
2022/06/16 05:00:56;;;;;;;7.15;4.05;;;;;;;14.66;60.18;101976.38;5054040;28;20105;-75
2022/06/16 05:03:24;;;;;;;6.82;4.00;;;;;;;14.68;60.14;101969.38;5057539;28;20093;-75
2022/06/16 05:05:50;;;;;;;7.28;4.15;;;;;;;14.71;59.91;101973.66;5042078;28;20073;-75
2022/06/16 05:08:17;;;;;;;5.88;4.18;;;;;;;14.76;60.22;101976.16;5057328;28;20037;-75
2022/06/16 05:10:44;;;;;;;5.10;3.55;;;;;;;14.80;60.52;101983.06;5058290;28;20032;-75
2022/06/16 05:13:10;;;;;;;5.43;3.63;;;;;;;14.85;59.45;101981.19;5053740;28;20172;-74
2022/06/16 05:15:36;;;;;;;7.18;3.85;;;;;;;14.88;60.17;101983.69;5035875;28;20126;-75
2022/06/16 05:18:02;;;;;;;6.22;3.97;;;;;;;14.93;60.26;101994.09;5040193;28;20117;-75
2022/06/16 05:20:27;;;;;;;5.05;3.70;;;;;;;14.99;58.78;101993.91;5057511;28;20135;-75
2022/06/16 05:22:53;;;;;;;6.60;4.10;;;;;;;15.03;58.92;102001.66;5054188;28;20041;-75
2022/06/16 05:25:18;;;;;;;7.20;4.00;;;;;;;15.11;58.85;102008.47;5055728;28;21440;-75
2022/06/16 05:27:44;;;;;;;8.45;3.78;;;;;;;15.16;59.17;102007.44;5058073;28;20348;-75
2022/06/16 05:30:09;;;;;;;5.13;3.78;;;;;;;15.23;59.15;102012.53;5055732;28;20128;-75
2022/06/16 05:32:35;;;;;;;5.72;3.97;;;;;;;15.30;59.71;102021.94;5056154;28;20066;-74
2022/06/16 05:35:01;;;;;;;9.07;4.03;;;;;;;15.37;58.04;102017.41;5056858;28;20032;-75
2022/06/16 05:37:26;;;;;;;4.75;3.33;;;;;;;15.42;55.21;102012.88;5058475;28;20029;-75
2022/06/16 05:39:52;;;;;;;7.78;3.70;;;;;;;15.49;55.59;102014.44;5058163;28;20029;-75
2022/06/16 05:42:18;;;;;;;4.25;3.28;;;;;;;15.56;55.98;102018.59;5056875;28;20480;-75
2022/06/16 05:44:43;;;;;;;5.47;3.58;;;;;;;15.62;56.36;102026.31;5062449;28;20047;-75
2022/06/16 05:47:09;;;;;;;5.18;3.60;;;;;;;15.67;56.22;102018.31;5062643;28;20095;-75
2022/06/16 05:49:38;;;;;;;8.52;3.40;;;;;;;15.74;56.23;102025.09;5065746;28;20024;-75
2022/06/16 05:52:10;;;;;;;5.22;3.15;;;;;;;15.81;57.04;102028.41;5062485;28;20017;-75
2022/06/16 05:54:36;;;;;;;6.97;3.08;;;;;;;15.90;57.27;102029.94;5060929;28;20394;-75
2022/06/16 05:57:03;;;;;;;4.38;3.30;;;;;;;15.96;55.08;102036.78;5063590;28;20020;-76
2022/06/16 05:59:28;;;;;;;4.97;2.90;;;;;;;16.00;56.15;102027.91;5057246;28;20033;-75
2022/06/16 06:01:53;;;;;;;4.78;3.08;;;;;;;16.05;53.84;102033.91;5061202;28;20031;-76
2022/06/16 06:04:18;;;;;;;4.68;2.83;;;;;;;16.10;54.78;102039.84;5065516;28;20024;-75
2022/06/16 06:06:44;;;;;;;3.92;2.67;;;;;;;16.15;54.23;102037.06;5060659;28;20028;-75
2022/06/16 06:17:23;;;;;;;5.07;2.35;;;;;;;16.38;53.12;102039.88;5057840;28;20116;-75
2022/06/16 06:19:49;;;;;;;4.80;2.70;;;;;;;16.43;53.10;102042.34;5063428;28;20036;-75
2022/06/16 06:22:19;;;;;;;6.22;2.38;;;;;;;16.49;54.08;102044.78;5044588;28;20055;-75
2022/06/16 06:24:47;;;;;;;3.95;2.30;;;;;;;16.58;52.80;102040.13;5046520;28;20990;-75
2022/06/16 06:27:19;;;;;;;4.25;2.58;;;;;;;16.64;52.51;102039.97;5061045;28;20074;-75
2022/06/16 06:29:46;;;;;;;4.75;2.63;;;;;;;16.67;51.43;102043.34;5060052;28;20476;-75
2022/06/16 06:32:13;;;;;;;3.35;2.50;;;;;;;16.73;53.64;102044.94;5058995;28;20035;-76
2022/06/16 06:34:38;;;;;;;4.68;2.35;;;;;;;16.79;52.28;102047.34;5058655;28;20381;-75
2022/06/16 06:37:05;;;;;;;3.92;2.50;;;;;;;16.86;53.08;102044.53;5061335;28;20036;-75
2022/06/16 06:39:31;;;;;;;5.75;2.80;;;;;;;16.91;52.23;102055.75;5058618;28;20495;-75
2022/06/16 06:41:56;;;;;;;4.88;2.63;;;;;;;16.95;51.67;102041.59;5058941;28;20116;-75
2022/06/16 06:44:22;;;;;;;3.65;2.30;;;;;;;16.99;53.25;102048.50;5059328;28;20116;-76
2022/06/16 06:46:47;;;;;;;6.57;2.40;;;;;;;17.02;50.76;102048.38;5064359;28;20055;-75
2022/06/16 06:49:12;;;;;;;4.10;2.40;;;;;;;17.07;50.68;102053.47;5057726;28;21073;-75
2022/06/16 06:51:38;;;;;;;4.90;2.42;;;;;;;17.09;50.68;102049.88;5058612;28;20028;-75
2022/06/16 06:54:04;;;;;;;5.22;2.08;;;;;;;17.15;52.89;102056.72;5058928;28;20027;-75
2022/06/16 06:56:31;;;;;;;4.47;2.05;;;;;;;17.22;53.58;102067.91;5061384;28;20029;-75
2022/06/16 06:58:58;;;;;;;2.65;1.90;;;;;;;17.27;51.87;102074.72;5060991;28;20036;-75
2022/06/16 07:01:23;;;;;;;3.72;1.80;;;;;;;17.33;53.09;102072.78;5065347;28;20078;-75
2022/06/16 07:03:50;;;;;;;3.17;1.90;;;;;;;17.38;50.39;102082.22;5065185;28;20028;-75
2022/06/16 07:06:16;;;;;;;5.68;1.98;;;;;;;17.44;49.78;102089.06;5066019;28;20025;-75
2022/06/16 07:08:41;;;;;;;2.38;1.67;;;;;;;17.45;49.63;102083.72;5067267;28;20020;-75
2022/06/16 07:11:07;;;;;;;4.28;1.92;;;;;;;17.47;49.80;102082.81;5066729;28;20032;-76
2022/06/16 07:13:33;;;;;;;2.40;1.80;;;;;;;17.51;49.05;102087.06;5062974;28;20464;-75
2022/06/16 07:15:58;;;;;;;2.90;1.85;;;;;;;17.54;49.30;102093.06;5058872;28;20608;-75
2022/06/16 07:18:23;;;;;;;2.85;1.80;;;;;;;17.59;51.69;102092.94;5062462;28;20033;-75
2022/06/16 07:20:50;;;;;;;3.75;1.80;;;;;;;17.63;50.47;102093.66;5063355;28;20053;-75
2022/06/16 07:23:18;;;;;;;2.67;1.55;;;;;;;17.66;49.28;102094.41;5059851;28;20024;-75
2022/06/16 07:25:44;;;;;;;4.50;1.60;;;;;;;17.70;52.22;102092.53;5043652;28;20024;-75
2022/06/16 07:28:09;;;;;;;3.05;1.65;;;;;;;17.74;50.29;102105.53;5066010;28;20435;-75
2022/06/16 07:30:35;;;;;;;3.10;1.75;;;;;;;17.78;50.65;102101.00;5058051;28;20556;-75
2022/06/16 07:33:00;;;;;;;3.47;1.52;;;;;;;17.82;52.19;102107.00;5057580;28;20032;-75
2022/06/16 07:35:25;;;;;;;4.45;1.50;;;;;;;17.85;49.99;102106.91;5057720;28;20028;-75
2022/06/16 07:37:51;;;;;;;3.40;1.45;;;;;;;17.90;51.58;102110.25;5060623;28;20644;-75
2022/06/16 07:40:17;;;;;;;3.58;1.38;;;;;;;17.90;48.29;102115.50;5066368;28;20119;-76
2022/06/16 07:42:44;;;;;;;3.70;1.58;;;;;;;17.94;51.50;102122.34;5070253;28;20024;-75
2022/06/16 07:45:10;;;;;;;2.75;1.50;;;;;;;17.96;51.60;102131.06;5061000;28;20122;-75
2022/06/16 07:47:35;;;;;;;3.63;1.50;;;;;;;17.96;47.75;102133.69;5063208;28;20523;-76
2022/06/16 07:50:03;;;;;;;3.65;1.40;;;;;;;18.01;49.67;102138.84;5068278;28;20360;-76
2022/06/16 07:52:29;;;;;;;3.08;1.40;;;;;;;18.05;50.30;102140.44;5066961;28;20032;-75
2022/06/16 07:54:54;;;;;;;1.90;1.20;;;;;;;18.07;47.17;102149.16;5070371;28;20444;-75
2022/06/16 07:57:21;;;;;;;3.78;1.40;;;;;;;18.10;49.33;102145.56;5066780;28;20030;-75
2022/06/16 07:59:50;;;;;;;2.25;1.10;;;;;;;18.13;49.21;102153.31;5061297;28;20397;-75
2022/06/16 08:02:16;;;;;;;3.15;1.30;;;;;;;18.15;48.25;102140.97;5062126;28;20020;-75
2022/06/16 08:04:41;;;;;;;4.75;1.50;;;;;;;18.18;47.02;102139.09;5048041;28;20074;-75
2022/06/16 08:07:06;;;;;;;2.95;1.60;;;;;;;18.23;48.99;102145.94;5062469;28;20070;-75
2022/06/16 08:09:33;;;;;;;3.20;1.67;;;;;;;18.25;47.22;102149.38;5081370;28;20032;-75
2022/06/16 08:12:07;;;;;;;2.65;1.30;;;;;;;18.29;50.23;102148.34;5068413;28;20028;-75
2022/06/16 08:14:36;;;;;;;2.85;1.40;;;;;;;18.32;47.22;102157.00;5069282;28;20024;-75
2022/06/16 08:17:03;;;;;;;3.15;1.42;;;;;;;18.34;47.84;102146.41;5069068;28;20024;-75
2022/06/16 08:19:29;;;;;;;4.07;1.42;;;;;;;18.37;49.17;102148.06;5060803;28;20052;-75
2022/06/16 08:21:54;;;;;;;3.80;1.42;;;;;;;18.40;49.08;102151.44;5046991;28;20051;-75
2022/06/16 08:24:20;;;;;;;1.75;1.23;;;;;;;18.43;47.73;102155.75;5068060;28;20122;-76
2022/06/16 08:26:46;;;;;;;3.45;1.42;;;;;;;18.45;47.16;102153.88;5064807;28;20379;-73
2022/06/16 08:29:15;;;;;;;2.83;1.30;;;;;;;18.47;46.74;102163.47;5065823;28;20032;-74
2022/06/16 08:31:41;;;;;;;2.42;1.33;;;;;;;18.46;45.33;102160.88;5067346;28;20012;-75
2022/06/16 08:34:07;;;;;;;2.47;1.40;;;;;;;18.45;45.48;102164.44;5070071;28;20032;-75
2022/06/16 08:36:33;;;;;;;3.03;1.65;;;;;;;18.47;47.55;102168.75;5081411;28;20692;-74
2022/06/16 08:38:58;;;;;;;3.75;1.92;;;;;;;18.52;46.20;102170.34;5070457;28;20039;-74
2022/06/16 08:41:37;;;;;;;3.88;1.30;;;;;;;18.58;47.00;102168.34;5066856;28;20028;-74
2022/06/16 08:44:14;;;;;;;2.90;1.52;;;;;;;18.64;47.80;102161.97;5066353;28;20055;-75
2022/06/16 08:46:51;;;;;;;2.70;1.50;;;;;;;18.64;44.39;102154.91;5052548;28;20032;-75
2022/06/16 08:49:43;;;;;;;4.60;1.50;;;;;;;18.70;47.34;102142.41;5060202;28;20033;-75
2022/06/16 08:52:14;;;;;;;4.00;1.52;;;;;;;18.72;45.93;102137.94;5063611;28;20539;-75
2022/06/16 08:55:03;;;;;;;3.80;1.60;;;;;;;18.76;46.84;102139.53;5065067;28;20033;-74
2022/06/16 08:57:35;;;;;;;3.97;1.63;;;;;;;18.80;47.98;102141.13;5070077;28;20033;-75
2022/06/16 09:00:06;;;;;;;;;;;;;;;18.86;47.25;102143.53;5050578;28;20032;-75
2022/06/16 09:02:41;;;;;;;3.23;1.50;;;;;;;18.88;45.76;102156.63;5048448;28;19925;-75
2022/06/16 09:05:28;;;;;;;2.83;1.50;;;;;;;18.88;45.34;102157.50;5062927;28;20291;-75
2022/06/16 09:08:11;;;;;;;2.95;1.38;;;;;;;18.94;47.12;102173.13;5066755;28;20045;-75
2022/06/16 09:10:45;;;;;;;4.35;1.15;;;;;;;19.00;45.56;102179.06;5056963;28;20735;-75
2022/06/16 09:13:13;;;;;;;4.15;1.50;;;;;;;19.07;46.75;102173.47;5053361;28;20017;-75
2022/06/16 09:16:04;;;;;;;2.67;1.33;;;;;;;19.14;46.06;102182.00;5043444;28;20025;-75
2022/06/16 09:18:38;;;;;;;3.85;1.50;;;;;;;19.21;48.33;102183.47;5044435;28;20028;-76
2022/06/16 09:21:22;;;;;;;2.30;1.33;;;;;;;19.22;45.12;102186.94;5047239;28;20488;-75
2022/06/16 09:24:01;;;;;;;4.20;1.42;;;;;;;19.23;45.92;102188.66;5044873;28;20083;-75
2022/06/16 09:26:48;;;;;;;2.75;1.17;;;;;;;19.22;42.45;102192.22;5042120;28;20719;-76
2022/06/16 09:29:26;;;;;;;5.68;1.40;;;;;;;19.20;45.96;102194.94;5026965;28;20029;-75
2022/06/16 09:32:15;;;;;;;4.10;1.50;;;;;;;19.21;45.07;102196.66;5045741;28;20029;-75
2022/06/16 09:34:56;;;;;;;1.85;1.33;;;;;;;19.25;45.08;102200.03;5018163;28;20115;-75
2022/06/16 09:37:32;;;;;;;2.03;1.40;;;;;;;19.29;44.98;102203.41;5039627;28;20039;-75
2022/06/16 09:40:16;;;;;;;2.85;1.40;;;;;;;19.33;47.74;102200.59;5036774;28;20475;-76
2022/06/16 09:42:48;;;;;;;2.55;1.60;;;;;;;19.38;43.87;102197.75;5037441;28;20395;-76
2022/06/16 09:45:24;;;;;;;1.98;1.48;;;;;;;19.42;45.52;102204.63;5020139;28;20059;-75
2022/06/16 09:48:14;;;;;;;2.38;1.40;;;;;;;19.47;45.97;102202.63;5038034;28;20084;-78
2022/06/16 09:50:48;;;;;;;4.03;1.77;;;;;;;19.49;44.19;102205.22;5022773;28;20057;-76
2022/06/16 09:53:33;;;;;;;5.38;1.65;;;;;;;19.49;45.23;102194.66;5035631;28;20040;-76
2022/06/16 09:56:04;;;;;;;3.92;1.98;;;;;;;19.49;43.58;102198.16;5034668;28;20055;-77
2022/06/16 09:58:32;;;;;;;5.00;1.70;;;;;;;19.48;44.82;102190.31;5015871;28;20494;-76
2022/06/16 10:01:02;;;;;;;3.50;2.13;;;;;;;19.46;42.79;102193.03;5045515;28;20029;-76
2022/06/16 10:03:31;;;;;;;8.15;1.90;;;;;;;19.45;43.35;102199.22;5040697;28;20028;-76
2022/06/16 10:06:27;;;;;;;4.47;1.55;;;;;;;19.51;45.85;102193.66;5024244;28;20041;-76
2022/06/16 10:09:10;;;;;;;4.13;1.90;;;;;;;19.60;45.54;102194.22;5021666;28;20479;-76
2022/06/16 10:11:51;;;;;;;4.60;1.80;;;;;;;19.65;46.27;102193.09;5039273;28;20039;-76
2022/06/16 10:14:44;;;;;;;4.30;1.70;;;;;;;19.71;46.02;102194.59;5041883;28;20119;-76
2022/06/16 10:17:13;;;;;;;3.92;1.65;;;;;;;19.77;44.25;102199.63;5041781;28;20105;-76
2022/06/16 10:19:44;;;;;;;3.22;1.77;;;;;;;19.79;43.22;102203.06;5049130;28;20048;-76
2022/06/16 10:22:22;;;;;;;2.40;1.80;;;;;;;19.84;45.76;102206.34;5060363;28;20059;-76
2022/06/16 10:24:56;;;;;;;3.95;1.77;;;;;;;19.85;43.45;102202.78;5058177;28;20175;-76
2022/06/16 10:27:28;;;;;;;4.90;1.92;;;;;;;19.91;45.42;102201.69;5056646;28;20103;-76
2022/06/16 10:29:57;;;;;;;2.53;1.77;;;;;;;19.94;43.93;102200.72;5041816;28;20097;-77
2022/06/16 10:32:40;;;;;;;3.83;1.95;;;;;;;19.96;44.22;102193.59;5062781;28;20032;-76
2022/06/16 10:35:07;;;;;;;4.40;1.60;;;;;;;19.94;45.91;102190.16;5058040;28;20035;-76
2022/06/16 10:37:38;;;;;;;3.25;1.65;;;;;;;19.93;45.67;102191.91;5037307;28;20024;-76
2022/06/16 10:40:09;;;;;;;2.75;1.60;;;;;;;19.97;46.03;102190.03;5058451;28;20060;-76
2022/06/16 10:42:43;;;;;;;4.22;1.75;;;;;;;20.00;45.66;102200.44;5060571;28;20032;-76
2022/06/16 10:45:14;;;;;;;3.30;1.60;;;;;;;20.04;45.10;102201.19;5057766;28;20043;-76
2022/06/16 10:47:56;;;;;;;3.03;1.90;;;;;;;20.09;44.83;102205.31;5062518;28;20028;-76
2022/06/16 10:50:30;;;;;;;5.38;1.70;;;;;;;20.10;45.03;102206.16;5046007;28;20036;-76
2022/06/16 10:53:12;;;;;;;2.78;1.67;;;;;;;20.08;42.64;102203.59;5057403;28;20104;-76
2022/06/16 10:55:44;;;;;;;3.40;1.90;;;;;;;20.05;42.14;102202.91;5057844;28;20033;-76
2022/06/16 10:58:20;;;;;;;4.82;1.65;;;;;;;20.04;43.89;102209.94;5057064;28;20043;-76
2022/06/16 11:00:59;;;;;;;3.97;2.00;;;;;;;20.07;44.87;102220.38;5062640;28;20097;-76
2022/06/16 11:03:25;;;;;;;5.55;2.10;;;;;;;20.11;44.74;102215.81;5057905;28;20037;-76
2022/06/16 11:05:54;;;;;;;4.03;1.73;;;;;;;20.12;44.04;102210.47;5062152;28;20032;-76
2022/06/16 11:08:22;;;;;;;4.43;1.92;;;;;;;20.16;44.84;102217.31;5059918;28;20033;-76
2022/06/16 11:10:55;;;;;;;3.70;2.00;;;;;;;20.20;44.95;102206.63;5058314;28;20043;-76
2022/06/16 11:13:27;;;;;;;4.57;2.00;;;;;;;20.22;44.55;102197.72;5057307;28;20033;-76
2022/06/16 11:15:53;;;;;;;5.47;1.90;;;;;;;20.24;43.56;102200.28;5055855;28;20040;-76
2022/06/16 11:18:22;;;;;;;2.42;1.73;;;;;;;20.26;45.40;102209.00;5054801;28;20039;-76
2022/06/16 11:20:52;;;;;;;3.72;2.10;;;;;;;20.27;44.23;102211.56;5052812;28;20056;-76
2022/06/16 11:23:51;;;;;;;4.15;2.20;;;;;;;20.32;45.17;102208.72;5056977;28;20032;-76
2022/06/16 11:26:24;;;;;;;3.67;1.90;;;;;;;20.35;43.49;102210.38;5037848;28;20162;-76
2022/06/16 11:28:53;;;;;;;3.97;2.03;;;;;;;20.41;47.00;102192.44;5055901;28;20032;-77
2022/06/16 11:31:22;;;;;;;5.45;1.85;;;;;;;20.43;43.86;102187.94;5054169;28;20476;-76
2022/06/16 11:34:06;;;;;;;3.40;1.85;;;;;;;20.44;44.59;102179.09;5056161;28;20032;-76
2022/06/16 11:36:34;;;;;;;3.10;1.80;;;;;;;20.51;44.76;102186.72;5055452;28;20024;-76
2022/06/16 11:39:39;;;;;;;6.05;1.88;;;;;;;20.56;44.58;102187.38;5055795;28;20036;-76
2022/06/16 11:42:17;;;;;;;2.90;1.95;;;;;;;20.63;45.65;102186.16;5056365;28;20071;-76
2022/06/16 11:44:48;;;;;;;3.72;1.80;;;;;;;20.68;46.42;102186.78;5059090;28;20029;-76
2022/06/16 11:47:33;;;;;;;3.42;1.90;;;;;;;20.72;43.17;102192.81;5051192;28;21075;-76
2022/06/16 11:50:33;;;;;;;3.28;1.80;;;;;;;20.74;45.21;102197.06;5056080;28;20043;-76
2022/06/16 11:53:16;;;;;;;3.50;2.00;;;;;;;20.73;43.31;102184.78;5053500;28;20035;-76
2022/06/16 11:56:01;;;;;;;3.22;1.70;;;;;;;20.76;44.95;102178.50;5058162;28;20037;-76
2022/06/16 11:58:47;;;;;;;5.10;2.00;;;;;;;20.82;44.84;102180.03;5060774;28;20043;-76
2022/06/16 12:01:26;;;;;;;4.20;1.98;;;;;;;20.86;44.32;102176.28;5063651;28;20028;-76